sensor_id;sensor_type;location;lat;lon;timestamp;P1;durP1;ratioP1;P2;durP2;ratioP2
27728;SDS011;15126;42.186;24.340;2022-10-19T00:01:09;16.90;;;10.10;;
27728;SDS011;15126;42.186;24.340;2022-10-19T00:03:38;11.97;;;10.20;;
27728;SDS011;15126;42.186;24.340;2022-10-19T00:06:11;14.07;;;9.07;;
27728;SDS011;15126;42.186;24.340;2022-10-19T00:08:39;11.47;;;9.13;;
27728;SDS011;15126;42.186;24.340;2022-10-19T00:11:07;12.77;;;10.53;;
27728;SDS011;15126;42.186;24.340;2022-10-19T00:13:35;11.17;;;10.03;;
27728;SDS011;15126;42.186;24.340;2022-10-19T00:16:06;12.27;;;10.40;;
27728;SDS011;15126;42.186;24.340;2022-10-19T00:18:34;14.20;;;10.37;;
27728;SDS011;15126;42.186;24.340;2022-10-19T00:21:01;16.20;;;10.77;;
27728;SDS011;15126;42.186;24.340;2022-10-19T00:23:29;22.77;;;11.70;;
27728;SDS011;15126;42.186;24.340;2022-10-19T00:25:56;12.20;;;10.30;;
27728;SDS011;15126;42.186;24.340;2022-10-19T00:28:24;12.10;;;10.40;;
27728;SDS011;15126;42.186;24.340;2022-10-19T00:30:52;13.13;;;10.37;;
27728;SDS011;15126;42.186;24.340;2022-10-19T00:33:19;11.77;;;10.37;;
27728;SDS011;15126;42.186;24.340;2022-10-19T00:35:47;13.57;;;10.00;;
27728;SDS011;15126;42.186;24.340;2022-10-19T00:38:14;13.77;;;9.97;;
27728;SDS011;15126;42.186;24.340;2022-10-19T00:40:42;10.97;;;9.90;;
27728;SDS011;15126;42.186;24.340;2022-10-19T00:43:11;16.03;;;12.00;;
27728;SDS011;15126;42.186;24.340;2022-10-19T00:45:40;13.13;;;9.13;;
27728;SDS011;15126;42.186;24.340;2022-10-19T00:48:09;12.83;;;10.47;;
27728;SDS011;15126;42.186;24.340;2022-10-19T00:50:39;13.27;;;9.57;;
27728;SDS011;15126;42.186;24.340;2022-10-19T00:53:07;11.03;;;9.23;;
27728;SDS011;15126;42.186;24.340;2022-10-19T00:55:35;10.90;;;9.73;;
27728;SDS011;15126;42.186;24.340;2022-10-19T00:58:04;10.37;;;9.37;;
27728;SDS011;15126;42.186;24.340;2022-10-19T01:00:31;10.47;;;9.33;;
27728;SDS011;15126;42.186;24.340;2022-10-19T01:02:59;11.57;;;9.37;;
27728;SDS011;15126;42.186;24.340;2022-10-19T01:05:28;12.67;;;8.73;;
27728;SDS011;15126;42.186;24.340;2022-10-19T01:07:56;11.17;;;9.20;;
27728;SDS011;15126;42.186;24.340;2022-10-19T01:10:24;10.13;;;8.60;;
27728;SDS011;15126;42.186;24.340;2022-10-19T01:13:05;13.10;;;9.53;;
27728;SDS011;15126;42.186;24.340;2022-10-19T01:15:44;9.97;;;8.53;;
27728;SDS011;15126;42.186;24.340;2022-10-19T01:18:21;10.40;;;9.10;;
27728;SDS011;15126;42.186;24.340;2022-10-19T01:27:13;11.23;;;10.07;;
27728;SDS011;15126;42.186;24.340;2022-10-19T01:30:06;12.80;;;10.07;;
27728;SDS011;15126;42.186;24.340;2022-10-19T01:35:25;9.50;;;8.70;;
27728;SDS011;15126;42.186;24.340;2022-10-19T01:38:02;11.57;;;10.03;;
27728;SDS011;15126;42.186;24.340;2022-10-19T01:40:36;9.97;;;8.97;;
27728;SDS011;15126;42.186;24.340;2022-10-19T01:43:09;11.17;;;9.47;;
27728;SDS011;15126;42.186;24.340;2022-10-19T01:45:43;10.93;;;8.23;;
27728;SDS011;15126;42.186;24.340;2022-10-19T01:48:15;12.73;;;8.83;;
27728;SDS011;15126;42.186;24.340;2022-10-19T01:50:46;9.70;;;7.43;;
27728;SDS011;15126;42.186;24.340;2022-10-19T01:53:17;9.80;;;7.97;;
27728;SDS011;15126;42.186;24.340;2022-10-19T01:55:47;10.97;;;7.43;;
27728;SDS011;15126;42.186;24.340;2022-10-19T01:58:18;9.53;;;8.63;;
27728;SDS011;15126;42.186;24.340;2022-10-19T02:00:51;11.53;;;8.23;;
27728;SDS011;15126;42.186;24.340;2022-10-19T02:03:21;9.33;;;8.47;;
27728;SDS011;15126;42.186;24.340;2022-10-19T02:05:50;11.83;;;8.40;;
27728;SDS011;15126;42.186;24.340;2022-10-19T02:08:19;10.73;;;8.80;;
27728;SDS011;15126;42.186;24.340;2022-10-19T02:10:51;12.27;;;9.00;;
27728;SDS011;15126;42.186;24.340;2022-10-19T02:13:20;11.00;;;8.20;;
27728;SDS011;15126;42.186;24.340;2022-10-19T02:15:48;9.13;;;8.23;;
27728;SDS011;15126;42.186;24.340;2022-10-19T02:18:20;8.67;;;7.67;;
27728;SDS011;15126;42.186;24.340;2022-10-19T02:20:52;11.07;;;8.07;;
27728;SDS011;15126;42.186;24.340;2022-10-19T02:23:19;12.73;;;8.90;;
27728;SDS011;15126;42.186;24.340;2022-10-19T02:25:49;9.73;;;7.60;;
27728;SDS011;15126;42.186;24.340;2022-10-19T02:28:16;10.13;;;7.70;;
27728;SDS011;15126;42.186;24.340;2022-10-19T02:30:43;7.10;;;6.43;;
27728;SDS011;15126;42.186;24.340;2022-10-19T02:33:12;9.23;;;8.37;;
27728;SDS011;15126;42.186;24.340;2022-10-19T02:35:39;16.13;;;8.80;;
27728;SDS011;15126;42.186;24.340;2022-10-19T02:38:06;10.67;;;8.33;;
27728;SDS011;15126;42.186;24.340;2022-10-19T02:40:36;13.03;;;8.47;;
27728;SDS011;15126;42.186;24.340;2022-10-19T02:43:09;9.57;;;7.50;;
27728;SDS011;15126;42.186;24.340;2022-10-19T02:45:40;13.50;;;9.17;;
27728;SDS011;15126;42.186;24.340;2022-10-19T02:48:17;11.70;;;10.00;;
27728;SDS011;15126;42.186;24.340;2022-10-19T02:50:47;11.97;;;10.37;;
27728;SDS011;15126;42.186;24.340;2022-10-19T02:53:16;13.80;;;12.33;;
27728;SDS011;15126;42.186;24.340;2022-10-19T02:55:44;15.17;;;13.77;;
27728;SDS011;15126;42.186;24.340;2022-10-19T02:58:13;18.53;;;16.73;;
27728;SDS011;15126;42.186;24.340;2022-10-19T03:00:40;22.83;;;20.40;;
27728;SDS011;15126;42.186;24.340;2022-10-19T03:03:07;25.07;;;22.37;;
27728;SDS011;15126;42.186;24.340;2022-10-19T03:05:36;27.80;;;24.90;;
27728;SDS011;15126;42.186;24.340;2022-10-19T03:08:03;28.63;;;26.03;;
27728;SDS011;15126;42.186;24.340;2022-10-19T03:10:30;32.10;;;28.63;;
27728;SDS011;15126;42.186;24.340;2022-10-19T03:12:57;32.23;;;26.67;;
27728;SDS011;15126;42.186;24.340;2022-10-19T03:15:24;30.13;;;26.27;;
27728;SDS011;15126;42.186;24.340;2022-10-19T03:17:53;31.63;;;25.77;;
27728;SDS011;15126;42.186;24.340;2022-10-19T03:20:21;26.30;;;23.70;;
27728;SDS011;15126;42.186;24.340;2022-10-19T03:22:49;21.80;;;19.00;;
27728;SDS011;15126;42.186;24.340;2022-10-19T03:25:17;24.20;;;21.80;;
27728;SDS011;15126;42.186;24.340;2022-10-19T03:27:44;22.50;;;20.40;;
27728;SDS011;15126;42.186;24.340;2022-10-19T03:30:11;24.50;;;19.60;;
27728;SDS011;15126;42.186;24.340;2022-10-19T03:32:37;19.50;;;17.43;;
27728;SDS011;15126;42.186;24.340;2022-10-19T03:35:05;19.27;;;16.30;;
27728;SDS011;15126;42.186;24.340;2022-10-19T03:37:32;20.53;;;16.53;;
27728;SDS011;15126;42.186;24.340;2022-10-19T03:40:00;17.57;;;15.43;;
27728;SDS011;15126;42.186;24.340;2022-10-19T03:42:27;19.77;;;16.90;;
27728;SDS011;15126;42.186;24.340;2022-10-19T03:44:55;19.27;;;17.27;;
27728;SDS011;15126;42.186;24.340;2022-10-19T03:47:22;28.10;;;25.13;;
27728;SDS011;15126;42.186;24.340;2022-10-19T03:49:49;36.53;;;30.87;;
27728;SDS011;15126;42.186;24.340;2022-10-19T03:52:16;35.43;;;31.83;;
27728;SDS011;15126;42.186;24.340;2022-10-19T03:54:43;34.03;;;29.13;;
27728;SDS011;15126;42.186;24.340;2022-10-19T03:57:12;35.83;;;31.90;;
27728;SDS011;15126;42.186;24.340;2022-10-19T03:59:39;35.47;;;31.27;;
27728;SDS011;15126;42.186;24.340;2022-10-19T04:02:05;34.40;;;28.27;;
27728;SDS011;15126;42.186;24.340;2022-10-19T04:04:32;36.87;;;31.13;;
27728;SDS011;15126;42.186;24.340;2022-10-19T04:06:59;33.20;;;29.80;;
27728;SDS011;15126;42.186;24.340;2022-10-19T04:09:26;30.20;;;23.40;;
27728;SDS011;15126;42.186;24.340;2022-10-19T04:11:53;35.47;;;22.67;;
27728;SDS011;15126;42.186;24.340;2022-10-19T04:14:21;27.03;;;22.60;;
27728;SDS011;15126;42.186;24.340;2022-10-19T04:16:50;21.90;;;19.70;;
27728;SDS011;15126;42.186;24.340;2022-10-19T04:19:19;29.13;;;26.07;;
27728;SDS011;15126;42.186;24.340;2022-10-19T04:21:46;23.73;;;20.37;;
27728;SDS011;15126;42.186;24.340;2022-10-19T04:24:15;18.87;;;16.77;;
27728;SDS011;15126;42.186;24.340;2022-10-19T04:26:46;19.13;;;14.43;;
27728;SDS011;15126;42.186;24.340;2022-10-19T04:29:15;15.77;;;14.07;;
27728;SDS011;15126;42.186;24.340;2022-10-19T04:31:46;19.67;;;12.23;;
27728;SDS011;15126;42.186;24.340;2022-10-19T04:34:14;19.60;;;13.40;;
27728;SDS011;15126;42.186;24.340;2022-10-19T04:36:41;15.57;;;11.67;;
27728;SDS011;15126;42.186;24.340;2022-10-19T04:39:08;12.57;;;11.27;;
27728;SDS011;15126;42.186;24.340;2022-10-19T04:41:35;14.50;;;11.13;;
27728;SDS011;15126;42.186;24.340;2022-10-19T04:44:03;13.17;;;11.30;;
27728;SDS011;15126;42.186;24.340;2022-10-19T04:46:31;14.17;;;10.67;;
27728;SDS011;15126;42.186;24.340;2022-10-19T04:48:59;13.87;;;11.40;;
27728;SDS011;15126;42.186;24.340;2022-10-19T04:51:28;11.80;;;10.60;;
27728;SDS011;15126;42.186;24.340;2022-10-19T04:53:55;16.10;;;12.13;;
27728;SDS011;15126;42.186;24.340;2022-10-19T04:56:23;30.73;;;12.87;;
27728;SDS011;15126;42.186;24.340;2022-10-19T04:59:08;17.13;;;11.60;;
27728;SDS011;15126;42.186;24.340;2022-10-19T05:01:38;15.90;;;11.73;;
27728;SDS011;15126;42.186;24.340;2022-10-19T05:04:07;17.23;;;11.93;;
27728;SDS011;15126;42.186;24.340;2022-10-19T05:06:35;13.27;;;12.00;;
27728;SDS011;15126;42.186;24.340;2022-10-19T05:09:06;14.10;;;12.60;;
27728;SDS011;15126;42.186;24.340;2022-10-19T05:11:47;20.50;;;12.30;;
27728;SDS011;15126;42.186;24.340;2022-10-19T05:14:14;18.17;;;12.07;;
27728;SDS011;15126;42.186;24.340;2022-10-19T05:16:41;15.63;;;12.57;;
27728;SDS011;15126;42.186;24.340;2022-10-19T05:19:11;19.30;;;12.70;;
27728;SDS011;15126;42.186;24.340;2022-10-19T05:21:39;17.30;;;11.77;;
27728;SDS011;15126;42.186;24.340;2022-10-19T05:24:06;16.07;;;11.33;;
27728;SDS011;15126;42.186;24.340;2022-10-19T05:26:32;15.40;;;9.40;;
27728;SDS011;15126;42.186;24.340;2022-10-19T05:28:59;19.43;;;9.50;;
27728;SDS011;15126;42.186;24.340;2022-10-19T05:31:28;10.43;;;9.23;;
27728;SDS011;15126;42.186;24.340;2022-10-19T05:33:57;16.40;;;10.10;;
27728;SDS011;15126;42.186;24.340;2022-10-19T05:36:26;12.10;;;9.37;;
27728;SDS011;15126;42.186;24.340;2022-10-19T05:38:56;13.33;;;8.70;;
27728;SDS011;15126;42.186;24.340;2022-10-19T05:41:24;17.53;;;8.57;;
27728;SDS011;15126;42.186;24.340;2022-10-19T05:43:52;16.80;;;9.33;;
27728;SDS011;15126;42.186;24.340;2022-10-19T05:46:20;11.63;;;10.27;;
27728;SDS011;15126;42.186;24.340;2022-10-19T05:48:48;18.27;;;10.07;;
27728;SDS011;15126;42.186;24.340;2022-10-19T05:51:15;17.53;;;10.27;;
27728;SDS011;15126;42.186;24.340;2022-10-19T05:53:49;24.73;;;11.53;;
27728;SDS011;15126;42.186;24.340;2022-10-19T05:56:18;65.23;;;13.33;;
27728;SDS011;15126;42.186;24.340;2022-10-19T05:58:47;18.30;;;11.03;;
27728;SDS011;15126;42.186;24.340;2022-10-19T06:01:15;15.60;;;12.53;;
27728;SDS011;15126;42.186;24.340;2022-10-19T06:03:43;16.77;;;13.27;;
27728;SDS011;15126;42.186;24.340;2022-10-19T06:06:10;17.70;;;12.80;;
27728;SDS011;15126;42.186;24.340;2022-10-19T06:08:37;19.57;;;12.47;;
27728;SDS011;15126;42.186;24.340;2022-10-19T06:11:07;14.30;;;10.37;;
27728;SDS011;15126;42.186;24.340;2022-10-19T06:13:36;11.40;;;10.00;;
27728;SDS011;15126;42.186;24.340;2022-10-19T06:16:04;18.87;;;9.37;;
27728;SDS011;15126;42.186;24.340;2022-10-19T06:18:32;14.20;;;9.57;;
27728;SDS011;15126;42.186;24.340;2022-10-19T06:21:02;13.93;;;9.23;;
27728;SDS011;15126;42.186;24.340;2022-10-19T06:23:31;13.47;;;9.40;;
27728;SDS011;15126;42.186;24.340;2022-10-19T06:26:00;13.93;;;9.63;;
27728;SDS011;15126;42.186;24.340;2022-10-19T06:28:32;12.53;;;9.80;;
27728;SDS011;15126;42.186;24.340;2022-10-19T06:30:59;11.67;;;9.73;;
27728;SDS011;15126;42.186;24.340;2022-10-19T06:33:26;15.93;;;9.27;;
27728;SDS011;15126;42.186;24.340;2022-10-19T06:35:54;12.23;;;9.50;;
27728;SDS011;15126;42.186;24.340;2022-10-19T06:38:30;17.13;;;9.67;;
27728;SDS011;15126;42.186;24.340;2022-10-19T06:40:59;13.60;;;10.00;;
27728;SDS011;15126;42.186;24.340;2022-10-19T06:43:26;12.27;;;9.33;;
27728;SDS011;15126;42.186;24.340;2022-10-19T06:45:55;18.43;;;10.27;;
27728;SDS011;15126;42.186;24.340;2022-10-19T06:48:22;12.03;;;10.33;;
27728;SDS011;15126;42.186;24.340;2022-10-19T06:50:54;13.80;;;10.03;;
27728;SDS011;15126;42.186;24.340;2022-10-19T06:53:21;13.50;;;9.60;;
27728;SDS011;15126;42.186;24.340;2022-10-19T06:55:48;19.30;;;11.17;;
27728;SDS011;15126;42.186;24.340;2022-10-19T06:58:16;12.27;;;8.80;;
27728;SDS011;15126;42.186;24.340;2022-10-19T07:00:43;18.07;;;9.20;;
27728;SDS011;15126;42.186;24.340;2022-10-19T07:03:11;19.87;;;8.53;;
27728;SDS011;15126;42.186;24.340;2022-10-19T07:05:38;18.07;;;7.83;;
27728;SDS011;15126;42.186;24.340;2022-10-19T07:08:05;10.97;;;8.27;;
27728;SDS011;15126;42.186;24.340;2022-10-19T07:10:32;17.73;;;8.63;;
27728;SDS011;15126;42.186;24.340;2022-10-19T07:12:59;10.47;;;8.70;;
27728;SDS011;15126;42.186;24.340;2022-10-19T07:15:25;12.40;;;8.83;;
27728;SDS011;15126;42.186;24.340;2022-10-19T07:17:52;11.50;;;7.60;;
27728;SDS011;15126;42.186;24.340;2022-10-19T07:20:20;9.90;;;7.20;;
27728;SDS011;15126;42.186;24.340;2022-10-19T07:22:48;20.47;;;7.60;;
27728;SDS011;15126;42.186;24.340;2022-10-19T07:25:14;13.57;;;9.57;;
27728;SDS011;15126;42.186;24.340;2022-10-19T07:27:41;10.97;;;9.67;;
27728;SDS011;15126;42.186;24.340;2022-10-19T07:30:08;14.93;;;9.33;;
27728;SDS011;15126;42.186;24.340;2022-10-19T07:32:36;12.90;;;8.87;;
27728;SDS011;15126;42.186;24.340;2022-10-19T07:35:03;14.27;;;9.93;;
27728;SDS011;15126;42.186;24.340;2022-10-19T07:37:31;18.90;;;10.80;;
27728;SDS011;15126;42.186;24.340;2022-10-19T07:39:58;15.13;;;10.17;;
27728;SDS011;15126;42.186;24.340;2022-10-19T07:42:26;9.90;;;7.90;;
27728;SDS011;15126;42.186;24.340;2022-10-19T07:44:54;9.53;;;7.30;;
27728;SDS011;15126;42.186;24.340;2022-10-19T07:47:21;12.20;;;7.80;;
27728;SDS011;15126;42.186;24.340;2022-10-19T07:49:48;14.70;;;7.20;;
27728;SDS011;15126;42.186;24.340;2022-10-19T07:52:14;7.00;;;6.30;;
27728;SDS011;15126;42.186;24.340;2022-10-19T07:54:43;7.57;;;6.87;;
27728;SDS011;15126;42.186;24.340;2022-10-19T07:57:13;9.87;;;7.00;;
27728;SDS011;15126;42.186;24.340;2022-10-19T07:59:40;10.77;;;6.77;;
27728;SDS011;15126;42.186;24.340;2022-10-19T08:02:08;7.57;;;6.83;;
27728;SDS011;15126;42.186;24.340;2022-10-19T08:04:39;15.87;;;7.80;;
27728;SDS011;15126;42.186;24.340;2022-10-19T08:07:06;10.63;;;7.20;;
27728;SDS011;15126;42.186;24.340;2022-10-19T08:09:33;10.27;;;7.50;;
27728;SDS011;15126;42.186;24.340;2022-10-19T08:12:01;12.70;;;7.90;;
27728;SDS011;15126;42.186;24.340;2022-10-19T08:14:28;9.20;;;6.43;;
27728;SDS011;15126;42.186;24.340;2022-10-19T08:16:55;9.20;;;6.30;;
27728;SDS011;15126;42.186;24.340;2022-10-19T08:19:22;12.43;;;6.93;;
27728;SDS011;15126;42.186;24.340;2022-10-19T08:21:49;8.70;;;7.20;;
27728;SDS011;15126;42.186;24.340;2022-10-19T08:24:16;11.27;;;7.00;;
27728;SDS011;15126;42.186;24.340;2022-10-19T08:26:44;9.60;;;6.63;;
27728;SDS011;15126;42.186;24.340;2022-10-19T08:29:14;8.20;;;6.63;;
27728;SDS011;15126;42.186;24.340;2022-10-19T08:31:42;8.50;;;6.23;;
27728;SDS011;15126;42.186;24.340;2022-10-19T08:34:10;8.73;;;6.60;;
27728;SDS011;15126;42.186;24.340;2022-10-19T08:36:38;10.27;;;6.67;;
27728;SDS011;15126;42.186;24.340;2022-10-19T08:39:05;13.63;;;7.37;;
27728;SDS011;15126;42.186;24.340;2022-10-19T08:41:36;8.13;;;5.70;;
27728;SDS011;15126;42.186;24.340;2022-10-19T08:44:25;7.40;;;6.30;;
27728;SDS011;15126;42.186;24.340;2022-10-19T08:47:08;8.87;;;6.47;;
27728;SDS011;15126;42.186;24.340;2022-10-19T08:49:40;9.07;;;6.97;;
27728;SDS011;15126;42.186;24.340;2022-10-19T08:52:09;7.10;;;6.50;;
27728;SDS011;15126;42.186;24.340;2022-10-19T08:54:41;8.17;;;6.27;;
27728;SDS011;15126;42.186;24.340;2022-10-19T08:57:13;11.40;;;5.90;;
27728;SDS011;15126;42.186;24.340;2022-10-19T08:59:52;7.97;;;6.07;;
27728;SDS011;15126;42.186;24.340;2022-10-19T09:02:33;9.90;;;5.70;;
27728;SDS011;15126;42.186;24.340;2022-10-19T09:05:11;8.37;;;6.30;;
27728;SDS011;15126;42.186;24.340;2022-10-19T09:07:44;9.27;;;5.97;;
27728;SDS011;15126;42.186;24.340;2022-10-19T09:10:15;9.53;;;6.13;;
27728;SDS011;15126;42.186;24.340;2022-10-19T09:12:47;7.43;;;6.07;;
27728;SDS011;15126;42.186;24.340;2022-10-19T09:15:23;11.00;;;6.27;;
27728;SDS011;15126;42.186;24.340;2022-10-19T09:17:52;11.93;;;5.97;;
27728;SDS011;15126;42.186;24.340;2022-10-19T09:20:21;7.83;;;5.30;;
27728;SDS011;15126;42.186;24.340;2022-10-19T09:22:51;7.43;;;4.43;;
27728;SDS011;15126;42.186;24.340;2022-10-19T09:25:27;17.00;;;5.63;;
27728;SDS011;15126;42.186;24.340;2022-10-19T09:27:59;8.40;;;5.30;;
27728;SDS011;15126;42.186;24.340;2022-10-19T09:30:33;9.47;;;4.67;;
27728;SDS011;15126;42.186;24.340;2022-10-19T09:33:04;10.67;;;5.60;;
27728;SDS011;15126;42.186;24.340;2022-10-19T09:35:37;7.17;;;4.67;;
27728;SDS011;15126;42.186;24.340;2022-10-19T09:38:08;10.53;;;4.40;;
27728;SDS011;15126;42.186;24.340;2022-10-19T09:40:41;5.23;;;4.03;;
27728;SDS011;15126;42.186;24.340;2022-10-19T09:43:08;9.10;;;4.13;;
27728;SDS011;15126;42.186;24.340;2022-10-19T09:45:46;6.50;;;4.23;;
27728;SDS011;15126;42.186;24.340;2022-10-19T09:48:19;5.63;;;3.57;;
27728;SDS011;15126;42.186;24.340;2022-10-19T09:50:52;5.00;;;3.70;;
27728;SDS011;15126;42.186;24.340;2022-10-19T09:53:23;4.50;;;4.10;;
27728;SDS011;15126;42.186;24.340;2022-10-19T09:55:54;8.30;;;4.70;;
27728;SDS011;15126;42.186;24.340;2022-10-19T09:58:24;7.00;;;4.67;;
27728;SDS011;15126;42.186;24.340;2022-10-19T10:00:54;9.03;;;5.70;;
27728;SDS011;15126;42.186;24.340;2022-10-19T10:03:26;9.50;;;6.07;;
27728;SDS011;15126;42.186;24.340;2022-10-19T10:05:55;10.93;;;6.07;;
27728;SDS011;15126;42.186;24.340;2022-10-19T10:08:24;10.03;;;6.43;;
27728;SDS011;15126;42.186;24.340;2022-10-19T10:10:55;8.10;;;6.70;;
27728;SDS011;15126;42.186;24.340;2022-10-19T10:13:26;7.87;;;5.63;;
27728;SDS011;15126;42.186;24.340;2022-10-19T10:15:56;6.83;;;5.20;;
27728;SDS011;15126;42.186;24.340;2022-10-19T10:18:25;7.67;;;5.13;;
27728;SDS011;15126;42.186;24.340;2022-10-19T10:20:58;10.60;;;6.20;;
27728;SDS011;15126;42.186;24.340;2022-10-19T10:23:28;5.40;;;5.00;;
27728;SDS011;15126;42.186;24.340;2022-10-19T10:25:58;6.87;;;5.13;;
27728;SDS011;15126;42.186;24.340;2022-10-19T10:28:26;9.07;;;4.70;;
27728;SDS011;15126;42.186;24.340;2022-10-19T10:30:57;7.07;;;4.63;;
27728;SDS011;15126;42.186;24.340;2022-10-19T10:33:27;7.50;;;4.77;;
27728;SDS011;15126;42.186;24.340;2022-10-19T10:36:00;9.73;;;4.80;;
27728;SDS011;15126;42.186;24.340;2022-10-19T10:38:29;10.10;;;5.27;;
27728;SDS011;15126;42.186;24.340;2022-10-19T10:40:59;6.10;;;5.47;;
27728;SDS011;15126;42.186;24.340;2022-10-19T10:43:29;5.47;;;4.50;;
27728;SDS011;15126;42.186;24.340;2022-10-19T10:46:01;5.83;;;3.80;;
27728;SDS011;15126;42.186;24.340;2022-10-19T10:48:31;9.07;;;4.83;;
27728;SDS011;15126;42.186;24.340;2022-10-19T10:51:02;7.60;;;4.63;;
27728;SDS011;15126;42.186;24.340;2022-10-19T10:53:34;9.33;;;4.70;;
27728;SDS011;15126;42.186;24.340;2022-10-19T10:56:03;7.20;;;4.47;;
27728;SDS011;15126;42.186;24.340;2022-10-19T10:58:43;7.60;;;5.00;;
27728;SDS011;15126;42.186;24.340;2022-10-19T11:01:18;5.23;;;4.73;;
27728;SDS011;15126;42.186;24.340;2022-10-19T11:03:49;7.90;;;4.70;;
27728;SDS011;15126;42.186;24.340;2022-10-19T11:06:21;11.13;;;4.57;;
27728;SDS011;15126;42.186;24.340;2022-10-19T11:08:53;7.23;;;4.57;;
27728;SDS011;15126;42.186;24.340;2022-10-19T11:11:24;8.77;;;4.40;;
27728;SDS011;15126;42.186;24.340;2022-10-19T11:13:58;5.33;;;3.90;;
27728;SDS011;15126;42.186;24.340;2022-10-19T11:16:32;7.47;;;5.20;;
27728;SDS011;15126;42.186;24.340;2022-10-19T11:19:05;5.40;;;5.00;;
27728;SDS011;15126;42.186;24.340;2022-10-19T11:21:40;9.17;;;5.00;;
27728;SDS011;15126;42.186;24.340;2022-10-19T11:24:14;5.57;;;4.20;;
27728;SDS011;15126;42.186;24.340;2022-10-19T11:26:51;9.23;;;5.10;;
27728;SDS011;15126;42.186;24.340;2022-10-19T11:29:42;6.53;;;4.70;;
27728;SDS011;15126;42.186;24.340;2022-10-19T11:32:24;6.97;;;5.77;;
27728;SDS011;15126;42.186;24.340;2022-10-19T11:35:04;6.30;;;4.73;;
27728;SDS011;15126;42.186;24.340;2022-10-19T11:37:42;9.60;;;4.70;;
27728;SDS011;15126;42.186;24.340;2022-10-19T11:40:18;7.93;;;4.57;;
27728;SDS011;15126;42.186;24.340;2022-10-19T11:42:54;5.70;;;4.00;;
27728;SDS011;15126;42.186;24.340;2022-10-19T11:45:29;6.60;;;4.37;;
27728;SDS011;15126;42.186;24.340;2022-10-19T11:48:12;6.90;;;4.17;;
27728;SDS011;15126;42.186;24.340;2022-10-19T11:50:52;9.07;;;4.07;;
27728;SDS011;15126;42.186;24.340;2022-10-19T11:53:22;6.17;;;4.23;;
27728;SDS011;15126;42.186;24.340;2022-10-19T11:56:00;6.27;;;4.73;;
27728;SDS011;15126;42.186;24.340;2022-10-19T11:58:38;5.83;;;3.67;;
27728;SDS011;15126;42.186;24.340;2022-10-19T12:01:19;6.07;;;3.70;;
27728;SDS011;15126;42.186;24.340;2022-10-19T12:07:15;6.93;;;4.57;;
27728;SDS011;15126;42.186;24.340;2022-10-19T12:09:57;4.67;;;4.13;;
27728;SDS011;15126;42.186;24.340;2022-10-19T12:12:32;6.70;;;4.10;;
27728;SDS011;15126;42.186;24.340;2022-10-19T12:15:04;7.60;;;4.53;;
27728;SDS011;15126;42.186;24.340;2022-10-19T12:17:43;6.57;;;4.43;;
27728;SDS011;15126;42.186;24.340;2022-10-19T12:20:15;4.97;;;4.57;;
27728;SDS011;15126;42.186;24.340;2022-10-19T12:22:49;10.93;;;4.83;;
27728;SDS011;15126;42.186;24.340;2022-10-19T12:25:16;5.07;;;3.70;;
27728;SDS011;15126;42.186;24.340;2022-10-19T12:27:45;4.87;;;4.37;;
27728;SDS011;15126;42.186;24.340;2022-10-19T12:30:14;8.17;;;4.17;;
27728;SDS011;15126;42.186;24.340;2022-10-19T12:32:46;10.37;;;4.63;;
27728;SDS011;15126;42.186;24.340;2022-10-19T12:35:28;9.43;;;4.37;;
27728;SDS011;15126;42.186;24.340;2022-10-19T12:38:17;7.40;;;4.07;;
27728;SDS011;15126;42.186;24.340;2022-10-19T12:40:48;27.90;;;4.60;;
27728;SDS011;15126;42.186;24.340;2022-10-19T12:43:20;8.07;;;4.00;;
27728;SDS011;15126;42.186;24.340;2022-10-19T12:45:54;6.63;;;4.17;;
27728;SDS011;15126;42.186;24.340;2022-10-19T12:48:33;8.57;;;3.87;;
27728;SDS011;15126;42.186;24.340;2022-10-19T12:51:07;8.60;;;4.00;;
27728;SDS011;15126;42.186;24.340;2022-10-19T12:53:39;16.47;;;4.53;;
27728;SDS011;15126;42.186;24.340;2022-10-19T12:56:10;8.63;;;3.70;;
27728;SDS011;15126;42.186;24.340;2022-10-19T12:58:44;11.53;;;4.00;;
27728;SDS011;15126;42.186;24.340;2022-10-19T13:01:18;5.40;;;3.73;;
27728;SDS011;15126;42.186;24.340;2022-10-19T13:03:47;6.83;;;4.00;;
27728;SDS011;15126;42.186;24.340;2022-10-19T13:06:18;4.83;;;3.50;;
27728;SDS011;15126;42.186;24.340;2022-10-19T13:08:59;9.83;;;4.57;;
27728;SDS011;15126;42.186;24.340;2022-10-19T13:11:28;6.57;;;3.87;;
27728;SDS011;15126;42.186;24.340;2022-10-19T13:14:00;4.87;;;3.93;;
27728;SDS011;15126;42.186;24.340;2022-10-19T13:19:26;5.17;;;4.30;;
27728;SDS011;15126;42.186;24.340;2022-10-19T13:28:01;5.07;;;3.50;;
27728;SDS011;15126;42.186;24.340;2022-10-19T13:31:02;4.13;;;3.70;;
27728;SDS011;15126;42.186;24.340;2022-10-19T13:33:47;5.33;;;4.43;;
27728;SDS011;15126;42.186;24.340;2022-10-19T13:36:16;5.50;;;3.73;;
27728;SDS011;15126;42.186;24.340;2022-10-19T13:38:44;6.67;;;3.73;;
27728;SDS011;15126;42.186;24.340;2022-10-19T13:41:14;4.53;;;3.70;;
27728;SDS011;15126;42.186;24.340;2022-10-19T13:43:51;6.93;;;4.63;;
27728;SDS011;15126;42.186;24.340;2022-10-19T13:46:33;10.03;;;4.20;;
27728;SDS011;15126;42.186;24.340;2022-10-19T13:55:11;4.77;;;3.70;;
27728;SDS011;15126;42.186;24.340;2022-10-19T13:58:13;4.30;;;3.17;;
27728;SDS011;15126;42.186;24.340;2022-10-19T14:00:58;3.77;;;2.90;;
27728;SDS011;15126;42.186;24.340;2022-10-19T14:03:37;7.10;;;3.93;;
27728;SDS011;15126;42.186;24.340;2022-10-19T14:06:32;4.97;;;4.27;;
27728;SDS011;15126;42.186;24.340;2022-10-19T14:12:13;7.27;;;4.73;;
27728;SDS011;15126;42.186;24.340;2022-10-19T14:14:44;7.50;;;4.07;;
27728;SDS011;15126;42.186;24.340;2022-10-19T14:17:17;9.17;;;3.90;;
27728;SDS011;15126;42.186;24.340;2022-10-19T14:19:46;6.13;;;4.03;;
27728;SDS011;15126;42.186;24.340;2022-10-19T14:22:18;11.93;;;5.13;;
27728;SDS011;15126;42.186;24.340;2022-10-19T14:24:48;5.20;;;3.73;;
27728;SDS011;15126;42.186;24.340;2022-10-19T14:27:17;11.90;;;5.20;;
27728;SDS011;15126;42.186;24.340;2022-10-19T14:29:48;16.30;;;6.27;;
27728;SDS011;15126;42.186;24.340;2022-10-19T14:32:20;14.93;;;7.30;;
27728;SDS011;15126;42.186;24.340;2022-10-19T14:34:49;19.00;;;5.73;;
27728;SDS011;15126;42.186;24.340;2022-10-19T14:37:18;15.30;;;5.73;;
27728;SDS011;15126;42.186;24.340;2022-10-19T14:39:56;13.67;;;6.30;;
27728;SDS011;15126;42.186;24.340;2022-10-19T14:42:33;10.90;;;6.37;;
27728;SDS011;15126;42.186;24.340;2022-10-19T14:45:01;16.03;;;7.70;;
27728;SDS011;15126;42.186;24.340;2022-10-19T14:47:30;7.97;;;6.37;;
27728;SDS011;15126;42.186;24.340;2022-10-19T14:49:56;14.40;;;6.03;;
27728;SDS011;15126;42.186;24.340;2022-10-19T14:52:24;12.17;;;5.20;;
27728;SDS011;15126;42.186;24.340;2022-10-19T14:54:56;13.27;;;6.37;;
27728;SDS011;15126;42.186;24.340;2022-10-19T14:57:30;18.77;;;8.17;;
27728;SDS011;15126;42.186;24.340;2022-10-19T15:00:00;16.40;;;8.80;;
27728;SDS011;15126;42.186;24.340;2022-10-19T15:02:31;17.20;;;9.17;;
27728;SDS011;15126;42.186;24.340;2022-10-19T15:05:03;19.30;;;8.07;;
27728;SDS011;15126;42.186;24.340;2022-10-19T15:07:33;66.50;;;61.37;;
27728;SDS011;15126;42.186;24.340;2022-10-19T15:10:04;28.47;;;20.27;;
27728;SDS011;15126;42.186;24.340;2022-10-19T15:12:33;24.93;;;16.40;;
27728;SDS011;15126;42.186;24.340;2022-10-19T15:15:06;25.30;;;14.93;;